North Lima, Ohio
Current Conditions -  °F | °C
As of 12:47 PM on Friday 24 Oct 2014 (Local Time) from KBVI Reporting Station
Clear Clear  
Wind Chill: 57°   Ceiling: Unl
Heat Index: 57°   Visibility: 10mi
Dew Point: 39°   Wind: 7mph
Humidity: 51%   Direction: 250°WSW
Pressure: 30.06"   Gusts: NA
Location:  40.95°N, 80.66°W
Report Text: KBVI 241647Z 25006KT 10SM CLR 14/04 A3006
Loading
Personal Weather Stations






























Interactive Weather Map
Tropical Storm Tracking
New forecast layout! Learn more

10-Day Weather Forecast

Advertisements
Track Severe Weather on mobile